Terminal Aerodrome Forecast
Issued by NWS Cleveland, OH

Home | Current Version | Previous Version | Graphics & Text | Print | Product List | Glossary On
Versions: 1 2 3 4 5 6 7 8 9 10 11 12 13 14 15 16 17 18 19 20 21 22 23 24
000
FTUS41 KCLE 061700
TAFTOL
TAF
KTOL 061724Z 0618/0718 09005KT 3SM BR OVC006
     FM061900 09005KT P6SM SCT250
     FM070100 10004KT 6SM BR SKC
     FM070400 00000KT 4SM BR SKC
     FM070900 00000KT 2SM BR SKC
     FM071300 VRB03KT 4SM BR SKC
     FM071400 15005KT P6SM SKC=

USA.gov is the U.S. government's official web portal to all federal, state and local government web resources and services.